sensor_id;sensor_type;location;lat;lon;timestamp;pressure;altitude;pressure_sealevel;temperature;humidity
32324;BME280;25666;44.350;9.222;2023-02-18T00:00:21;103217.78;;;10.58;100.00
32324;BME280;25666;44.350;9.222;2023-02-18T00:02:48;103221.34;;;10.64;100.00
32324;BME280;25666;44.350;9.222;2023-02-18T00:05:14;103213.72;;;10.74;100.00
32324;BME280;25666;44.350;9.222;2023-02-18T00:07:40;103205.38;;;10.74;100.00
32324;BME280;25666;44.350;9.222;2023-02-18T00:10:10;103208.53;;;10.63;100.00
32324;BME280;25666;44.350;9.222;2023-02-18T00:12:36;103212.16;;;10.63;100.00
32324;BME280;25666;44.350;9.222;2023-02-18T00:15:01;103206.00;;;10.66;100.00
32324;BME280;25666;44.350;9.222;2023-02-18T00:17:28;103202.38;;;10.71;100.00
32324;BME280;25666;44.350;9.222;2023-02-18T00:19:53;103204.25;;;10.75;100.00
32324;BME280;25666;44.350;9.222;2023-02-18T00:22:22;103200.75;;;10.65;100.00
32324;BME280;25666;44.350;9.222;2023-02-18T00:24:48;103201.09;;;10.53;100.00
32324;BME280;25666;44.350;9.222;2023-02-18T00:27:14;103196.16;;;10.45;100.00
32324;BME280;25666;44.350;9.222;2023-02-18T00:29:39;103198.56;;;10.57;100.00
32324;BME280;25666;44.350;9.222;2023-02-18T00:32:05;103197.38;;;10.68;100.00
32324;BME280;25666;44.350;9.222;2023-02-18T00:34:30;103202.69;;;10.64;100.00
32324;BME280;25666;44.350;9.222;2023-02-18T00:36:56;103203.22;;;10.66;100.00
32324;BME280;25666;44.350;9.222;2023-02-18T00:39:22;103199.91;;;10.64;100.00
32324;BME280;25666;44.350;9.222;2023-02-18T00:41:47;103207.69;;;10.67;100.00
32324;BME280;25666;44.350;9.222;2023-02-18T00:44:13;103204.66;;;10.64;100.00
32324;BME280;25666;44.350;9.222;2023-02-18T00:46:39;103210.88;;;10.51;100.00
32324;BME280;25666;44.350;9.222;2023-02-18T00:49:05;103199.47;;;10.47;100.00
32324;BME280;25666;44.350;9.222;2023-02-18T00:51:31;103192.47;;;10.55;100.00
32324;BME280;25666;44.350;9.222;2023-02-18T00:53:57;103196.03;;;10.60;100.00
32324;BME280;25666;44.350;9.222;2023-02-18T00:56:23;103191.84;;;10.63;100.00
32324;BME280;25666;44.350;9.222;2023-02-18T00:58:49;103196.91;;;10.56;100.00
32324;BME280;25666;44.350;9.222;2023-02-18T01:01:15;103188.59;;;10.51;100.00
32324;BME280;25666;44.350;9.222;2023-02-18T01:03:41;103190.09;;;10.38;100.00
32324;BME280;25666;44.350;9.222;2023-02-18T01:06:08;103183.94;;;10.41;100.00
32324;BME280;25666;44.350;9.222;2023-02-18T01:08:34;103193.84;;;10.57;100.00
32324;BME280;25666;44.350;9.222;2023-02-18T01:11:00;103193.19;;;10.65;100.00
32324;BME280;25666;44.350;9.222;2023-02-18T01:13:26;103194.59;;;10.68;100.00
32324;BME280;25666;44.350;9.222;2023-02-18T01:15:52;103186.78;;;10.70;100.00
32324;BME280;25666;44.350;9.222;2023-02-18T01:18:18;103183.66;;;10.71;100.00
32324;BME280;25666;44.350;9.222;2023-02-18T01:20:44;103182.03;;;10.70;100.00
32324;BME280;25666;44.350;9.222;2023-02-18T01:23:11;103180.63;;;10.73;100.00
32324;BME280;25666;44.350;9.222;2023-02-18T01:25:37;103175.03;;;10.73;100.00
32324;BME280;25666;44.350;9.222;2023-02-18T01:28:04;103173.09;;;10.73;100.00
32324;BME280;25666;44.350;9.222;2023-02-18T01:30:30;103176.41;;;10.75;100.00
32324;BME280;25666;44.350;9.222;2023-02-18T01:32:56;103177.13;;;10.57;100.00
32324;BME280;25666;44.350;9.222;2023-02-18T01:35:25;103169.81;;;10.66;100.00
32324;BME280;25666;44.350;9.222;2023-02-18T01:37:53;103173.44;;;10.67;100.00
32324;BME280;25666;44.350;9.222;2023-02-18T01:40:23;103167.84;;;10.67;100.00
32324;BME280;25666;44.350;9.222;2023-02-18T01:42:48;103159.75;;;10.70;100.00
32324;BME280;25666;44.350;9.222;2023-02-18T01:48:05;103152.41;;;10.80;100.00
32324;BME280;25666;44.350;9.222;2023-02-18T01:50:35;103149.38;;;10.76;100.00
32324;BME280;25666;44.350;9.222;2023-02-18T01:53:02;103146.28;;;10.77;100.00
32324;BME280;25666;44.350;9.222;2023-02-18T01:55:30;103148.06;;;10.68;100.00
32324;BME280;25666;44.350;9.222;2023-02-18T01:57:55;103145.38;;;10.58;100.00
32324;BME280;25666;44.350;9.222;2023-02-18T02:00:21;103147.03;;;10.59;100.00
32324;BME280;25666;44.350;9.222;2023-02-18T02:02:49;103148.69;;;10.60;100.00
32324;BME280;25666;44.350;9.222;2023-02-18T02:05:15;103145.41;;;10.53;100.00
32324;BME280;25666;44.350;9.222;2023-02-18T02:07:42;103149.34;;;10.52;100.00
32324;BME280;25666;44.350;9.222;2023-02-18T02:10:10;103144.78;;;10.61;100.00
32324;BME280;25666;44.350;9.222;2023-02-18T02:12:55;103141.94;;;10.66;100.00
32324;BME280;25666;44.350;9.222;2023-02-18T02:42:58;103116.09;;;10.61;100.00
32324;BME280;25666;44.350;9.222;2023-02-18T02:48:40;103107.19;;;10.59;100.00
32324;BME280;25666;44.350;9.222;2023-02-18T02:51:24;103100.50;;;10.60;100.00
32324;BME280;25666;44.350;9.222;2023-02-18T02:53:52;103096.88;;;10.64;100.00
32324;BME280;25666;44.350;9.222;2023-02-18T02:56:22;103097.38;;;10.66;100.00
32324;BME280;25666;44.350;9.222;2023-02-18T02:59:00;103101.88;;;10.62;100.00
32324;BME280;25666;44.350;9.222;2023-02-18T03:01:46;103099.44;;;10.56;100.00
32324;BME280;25666;44.350;9.222;2023-02-18T03:15:51;103096.31;;;10.34;100.00
32324;BME280;25666;44.350;9.222;2023-02-18T03:18:36;103099.28;;;10.42;100.00
32324;BME280;25666;44.350;9.222;2023-02-18T03:21:24;103106.41;;;10.53;100.00
32324;BME280;25666;44.350;9.222;2023-02-18T03:26:24;103098.56;;;10.60;100.00
32324;BME280;25666;44.350;9.222;2023-02-18T03:28:52;103099.34;;;10.66;100.00
32324;BME280;25666;44.350;9.222;2023-02-18T03:31:20;103093.50;;;10.67;100.00
32324;BME280;25666;44.350;9.222;2023-02-18T03:34:09;103099.41;;;10.61;100.00
32324;BME280;25666;44.350;9.222;2023-02-18T03:36:36;103089.09;;;10.61;100.00
32324;BME280;25666;44.350;9.222;2023-02-18T03:39:14;103087.69;;;10.59;100.00
32324;BME280;25666;44.350;9.222;2023-02-18T03:41:40;103098.97;;;10.49;100.00
32324;BME280;25666;44.350;9.222;2023-02-18T03:44:08;103102.34;;;10.46;100.00
32324;BME280;25666;44.350;9.222;2023-02-18T03:46:36;103102.28;;;10.51;100.00
32324;BME280;25666;44.350;9.222;2023-02-18T03:49:03;103098.06;;;10.53;100.00
32324;BME280;25666;44.350;9.222;2023-02-18T03:51:28;103090.78;;;10.57;100.00
32324;BME280;25666;44.350;9.222;2023-02-18T03:53:54;103087.00;;;10.48;100.00
32324;BME280;25666;44.350;9.222;2023-02-18T03:56:20;103096.78;;;10.41;100.00
32324;BME280;25666;44.350;9.222;2023-02-18T03:58:45;103100.47;;;10.36;100.00
32324;BME280;25666;44.350;9.222;2023-02-18T04:01:11;103094.06;;;10.36;100.00
32324;BME280;25666;44.350;9.222;2023-02-18T04:03:36;103092.16;;;10.31;100.00
32324;BME280;25666;44.350;9.222;2023-02-18T04:06:02;103093.53;;;10.34;100.00
32324;BME280;25666;44.350;9.222;2023-02-18T04:08:28;103095.16;;;10.40;100.00
32324;BME280;25666;44.350;9.222;2023-02-18T04:10:53;103084.19;;;10.48;100.00
32324;BME280;25666;44.350;9.222;2023-02-18T04:13:19;103088.59;;;10.54;100.00
32324;BME280;25666;44.350;9.222;2023-02-18T04:15:45;103089.13;;;10.56;100.00
32324;BME280;25666;44.350;9.222;2023-02-18T04:18:10;103092.50;;;10.53;100.00
32324;BME280;25666;44.350;9.222;2023-02-18T04:20:36;103102.78;;;10.58;100.00
32324;BME280;25666;44.350;9.222;2023-02-18T04:23:03;103101.88;;;10.62;100.00
32324;BME280;25666;44.350;9.222;2023-02-18T04:25:28;103110.88;;;10.54;100.00
32324;BME280;25666;44.350;9.222;2023-02-18T04:27:54;103104.31;;;10.40;100.00
32324;BME280;25666;44.350;9.222;2023-02-18T04:30:20;103114.91;;;10.38;100.00
32324;BME280;25666;44.350;9.222;2023-02-18T04:32:45;103111.53;;;10.41;100.00
32324;BME280;25666;44.350;9.222;2023-02-18T04:35:11;103108.75;;;10.41;100.00
32324;BME280;25666;44.350;9.222;2023-02-18T04:37:36;103107.97;;;10.36;100.00
32324;BME280;25666;44.350;9.222;2023-02-18T04:40:02;103111.53;;;10.41;100.00
32324;BME280;25666;44.350;9.222;2023-02-18T04:42:28;103109.78;;;10.50;100.00
32324;BME280;25666;44.350;9.222;2023-02-18T04:44:53;103098.75;;;10.40;100.00
32324;BME280;25666;44.350;9.222;2023-02-18T04:47:19;103097.34;;;10.43;100.00
32324;BME280;25666;44.350;9.222;2023-02-18T04:49:44;103101.75;;;10.49;100.00
32324;BME280;25666;44.350;9.222;2023-02-18T04:52:10;103099.56;;;10.41;100.00
32324;BME280;25666;44.350;9.222;2023-02-18T04:54:35;103100.16;;;10.38;100.00
32324;BME280;25666;44.350;9.222;2023-02-18T04:57:01;103101.78;;;10.44;100.00
32324;BME280;25666;44.350;9.222;2023-02-18T04:59:29;103105.19;;;10.36;100.00
32324;BME280;25666;44.350;9.222;2023-02-18T05:01:55;103107.22;;;10.25;100.00
32324;BME280;25666;44.350;9.222;2023-02-18T05:04:20;103108.38;;;10.24;100.00
32324;BME280;25666;44.350;9.222;2023-02-18T05:06:46;103110.25;;;10.29;100.00
32324;BME280;25666;44.350;9.222;2023-02-18T05:09:12;103103.84;;;10.33;100.00
32324;BME280;25666;44.350;9.222;2023-02-18T05:11:37;103106.38;;;10.30;100.00
32324;BME280;25666;44.350;9.222;2023-02-18T05:14:03;103109.28;;;10.43;100.00
32324;BME280;25666;44.350;9.222;2023-02-18T05:16:29;103116.25;;;10.46;100.00
32324;BME280;25666;44.350;9.222;2023-02-18T05:18:54;103104.56;;;10.44;100.00
32324;BME280;25666;44.350;9.222;2023-02-18T05:21:19;103103.97;;;10.47;100.00
32324;BME280;25666;44.350;9.222;2023-02-18T05:23:45;103098.41;;;10.47;100.00
32324;BME280;25666;44.350;9.222;2023-02-18T05:26:10;103096.31;;;10.34;100.00
32324;BME280;25666;44.350;9.222;2023-02-18T05:28:36;103092.16;;;10.31;100.00
32324;BME280;25666;44.350;9.222;2023-02-18T05:31:01;103092.38;;;10.40;100.00
32324;BME280;25666;44.350;9.222;2023-02-18T05:33:27;103095.75;;;10.37;100.00
32324;BME280;25666;44.350;9.222;2023-02-18T05:35:52;103096.25;;;10.39;100.00
32324;BME280;25666;44.350;9.222;2023-02-18T05:38:18;103094.25;;;10.44;100.00
32324;BME280;25666;44.350;9.222;2023-02-18T05:40:43;103097.22;;;10.53;100.00
32324;BME280;25666;44.350;9.222;2023-02-18T05:43:09;103096.75;;;10.46;100.00
32324;BME280;25666;44.350;9.222;2023-02-18T05:45:35;103098.28;;;10.33;100.00
32324;BME280;25666;44.350;9.222;2023-02-18T05:48:00;103089.09;;;10.33;100.00
32324;BME280;25666;44.350;9.222;2023-02-18T05:50:26;103099.31;;;10.37;100.00
32324;BME280;25666;44.350;9.222;2023-02-18T05:52:51;103091.88;;;10.33;100.00
32324;BME280;25666;44.350;9.222;2023-02-18T05:55:17;103105.44;;;10.39;100.00
32324;BME280;25666;44.350;9.222;2023-02-18T05:57:43;103103.78;;;10.38;100.00
32324;BME280;25666;44.350;9.222;2023-02-18T06:00:09;103103.28;;;10.31;100.00
32324;BME280;25666;44.350;9.222;2023-02-18T06:02:35;103103.78;;;10.38;100.00
32324;BME280;25666;44.350;9.222;2023-02-18T06:05:01;103107.66;;;10.42;100.00
32324;BME280;25666;44.350;9.222;2023-02-18T06:07:26;103109.59;;;10.42;100.00
32324;BME280;25666;44.350;9.222;2023-02-18T06:09:52;103107.00;;;10.50;100.00
32324;BME280;25666;44.350;9.222;2023-02-18T06:12:18;103107.00;;;10.50;100.00
32324;BME280;25666;44.350;9.222;2023-02-18T06:14:44;103111.75;;;10.50;100.00
32324;BME280;25666;44.350;9.222;2023-02-18T06:17:11;103118.41;;;10.54;100.00
32324;BME280;25666;44.350;9.222;2023-02-18T06:19:37;103112.81;;;10.54;100.00
32324;BME280;25666;44.350;9.222;2023-02-18T06:22:03;103123.69;;;10.55;100.00
32324;BME280;25666;44.350;9.222;2023-02-18T06:24:28;103114.50;;;10.55;100.00
32324;BME280;25666;44.350;9.222;2023-02-18T06:26:54;103109.97;;;10.59;100.00
32324;BME280;25666;44.350;9.222;2023-02-18T06:29:19;103107.19;;;10.59;100.00
32324;BME280;25666;44.350;9.222;2023-02-18T06:31:45;103113.00;;;10.62;100.00
32324;BME280;25666;44.350;9.222;2023-02-18T06:34:10;103117.31;;;10.50;100.00
32324;BME280;25666;44.350;9.222;2023-02-18T06:36:36;103114.25;;;10.51;100.00
32324;BME280;25666;44.350;9.222;2023-02-18T06:39:03;103117.53;;;10.58;100.00
32324;BME280;25666;44.350;9.222;2023-02-18T06:41:28;103109.94;;;10.64;100.00
32324;BME280;25666;44.350;9.222;2023-02-18T06:43:54;103106.84;;;10.65;100.00
32324;BME280;25666;44.350;9.222;2023-02-18T06:46:19;103108.84;;;10.65;100.00
32324;BME280;25666;44.350;9.222;2023-02-18T06:48:46;103103.53;;;10.63;100.00
32324;BME280;25666;44.350;9.222;2023-02-18T06:51:12;103109.13;;;10.63;100.00
32324;BME280;25666;44.350;9.222;2023-02-18T06:53:38;103104.31;;;10.69;100.00
32324;BME280;25666;44.350;9.222;2023-02-18T06:56:04;103107.69;;;10.66;100.00
32324;BME280;25666;44.350;9.222;2023-02-18T06:58:29;103106.16;;;10.55;100.00
32324;BME280;25666;44.350;9.222;2023-02-18T07:00:55;103102.19;;;10.61;100.00
32324;BME280;25666;44.350;9.222;2023-02-18T07:03:20;103105.47;;;10.68;100.00
32324;BME280;25666;44.350;9.222;2023-02-18T07:05:46;103103.34;;;10.55;100.00
32324;BME280;25666;44.350;9.222;2023-02-18T07:08:11;103106.66;;;10.57;100.00
32324;BME280;25666;44.350;9.222;2023-02-18T07:10:37;103116.34;;;10.64;100.00
32324;BME280;25666;44.350;9.222;2023-02-18T07:13:04;103115.78;;;10.67;100.00
32324;BME280;25666;44.350;9.222;2023-02-18T07:15:29;103120.94;;;10.79;100.00
32324;BME280;25666;44.350;9.222;2023-02-18T07:17:55;103126.75;;;10.83;100.00
32324;BME280;25666;44.350;9.222;2023-02-18T07:20:21;103123.63;;;10.89;100.00
32324;BME280;25666;44.350;9.222;2023-02-18T07:22:47;103128.88;;;10.91;100.00
32324;BME280;25666;44.350;9.222;2023-02-18T07:25:13;103133.94;;;10.89;100.00
32324;BME280;25666;44.350;9.222;2023-02-18T07:27:39;103125.50;;;10.94;100.00
32324;BME280;25666;44.350;9.222;2023-02-18T07:30:05;103137.75;;;10.98;100.00
32324;BME280;25666;44.350;9.222;2023-02-18T07:32:31;103131.81;;;11.04;100.00
32324;BME280;25666;44.350;9.222;2023-02-18T07:34:57;103129.78;;;11.10;100.00
32324;BME280;25666;44.350;9.222;2023-02-18T07:37:22;103128.09;;;11.14;100.00
32324;BME280;25666;44.350;9.222;2023-02-18T07:39:48;103135.00;;;11.16;100.00
32324;BME280;25666;44.350;9.222;2023-02-18T07:42:13;103128.91;;;11.14;100.00
32324;BME280;25666;44.350;9.222;2023-02-18T07:44:40;103124.09;;;11.20;100.00
32324;BME280;25666;44.350;9.222;2023-02-18T07:47:06;103131.88;;;11.23;100.00
32324;BME280;25666;44.350;9.222;2023-02-18T07:49:32;103136.56;;;11.27;100.00
32324;BME280;25666;44.350;9.222;2023-02-18T07:52:01;103137.63;;;11.32;100.00
32324;BME280;25666;44.350;9.222;2023-02-18T07:54:26;103133.72;;;11.33;100.00
32324;BME280;25666;44.350;9.222;2023-02-18T07:56:52;103133.97;;;11.36;100.00
32324;BME280;25666;44.350;9.222;2023-02-18T07:59:19;103133.97;;;11.36;100.00
32324;BME280;25666;44.350;9.222;2023-02-18T08:01:45;103139.56;;;11.31;100.00
32324;BME280;25666;44.350;9.222;2023-02-18T08:04:10;103141.47;;;11.36;100.00
32324;BME280;25666;44.350;9.222;2023-02-18T08:06:38;103138.84;;;11.44;100.00
32324;BME280;25666;44.350;9.222;2023-02-18T08:09:05;103138.81;;;11.49;100.00
32324;BME280;25666;44.350;9.222;2023-02-18T08:11:31;103145.44;;;11.53;100.00
32324;BME280;25666;44.350;9.222;2023-02-18T08:13:58;103148.72;;;11.37;100.00
32324;BME280;25666;44.350;9.222;2023-02-18T08:16:24;103147.22;;;11.44;100.00
32324;BME280;25666;44.350;9.222;2023-02-18T08:18:50;103142.41;;;11.50;100.00
32324;BME280;25666;44.350;9.222;2023-02-18T08:21:18;103147.03;;;11.59;100.00
32324;BME280;25666;44.350;9.222;2023-02-18T08:23:44;103158.66;;;11.66;100.00
32324;BME280;25666;44.350;9.222;2023-02-18T08:26:09;103155.59;;;11.68;100.00
32324;BME280;25666;44.350;9.222;2023-02-18T08:28:40;103163.53;;;11.79;100.00
32324;BME280;25666;44.350;9.222;2023-02-18T08:31:06;103157.63;;;11.81;100.00
32324;BME280;25666;44.350;9.222;2023-02-18T08:33:32;103158.66;;;11.90;100.00
32324;BME280;25666;44.350;9.222;2023-02-18T08:35:58;103150.19;;;11.95;100.00
32324;BME280;25666;44.350;9.222;2023-02-18T08:38:24;103148.72;;;12.03;100.00
32324;BME280;25666;44.350;9.222;2023-02-18T08:40:49;103155.31;;;12.07;100.00
32324;BME280;25666;44.350;9.222;2023-02-18T08:43:16;103158.56;;;12.14;100.00
32324;BME280;25666;44.350;9.222;2023-02-18T08:45:42;103155.09;;;12.22;100.00
32324;BME280;25666;44.350;9.222;2023-02-18T08:48:10;103147.88;;;12.21;100.00
32324;BME280;25666;44.350;9.222;2023-02-18T08:50:36;103147.47;;;12.27;100.00
32324;BME280;25666;44.350;9.222;2023-02-18T08:53:01;103151.47;;;12.40;100.00
32324;BME280;25666;44.350;9.222;2023-02-18T08:55:32;103154.25;;;12.40;100.00
32324;BME280;25666;44.350;9.222;2023-02-18T08:57:58;103156.44;;;12.43;100.00
32324;BME280;25666;44.350;9.222;2023-02-18T09:00:24;103157.25;;;12.44;100.00
32324;BME280;25666;44.350;9.222;2023-02-18T09:02:50;103154.91;;;12.51;100.00
32324;BME280;25666;44.350;9.222;2023-02-18T09:05:15;103164.94;;;12.52;100.00
32324;BME280;25666;44.350;9.222;2023-02-18T09:07:41;103167.66;;;12.57;100.00
32324;BME280;25666;44.350;9.222;2023-02-18T09:10:07;103162.28;;;12.60;100.00
32324;BME280;25666;44.350;9.222;2023-02-18T09:12:33;103162.72;;;12.67;100.00
32324;BME280;25666;44.350;9.222;2023-02-18T09:14:59;103157.66;;;12.69;100.00
32324;BME280;25666;44.350;9.222;2023-02-18T09:17:25;103170.19;;;12.72;100.00
32324;BME280;25666;44.350;9.222;2023-02-18T09:19:50;103160.06;;;12.76;100.00
32324;BME280;25666;44.350;9.222;2023-02-18T09:22:16;103163.56;;;12.81;100.00
32324;BME280;25666;44.350;9.222;2023-02-18T09:24:42;103158.13;;;12.90;100.00
32324;BME280;25666;44.350;9.222;2023-02-18T09:27:08;103153.88;;;12.93;100.00
32324;BME280;25666;44.350;9.222;2023-02-18T09:29:37;103158.88;;;12.96;100.00
32324;BME280;25666;44.350;9.222;2023-02-18T09:32:03;103160.81;;;12.95;100.00
32324;BME280;25666;44.350;9.222;2023-02-18T09:34:28;103154.72;;;12.93;100.00
32324;BME280;25666;44.350;9.222;2023-02-18T09:36:54;103158.09;;;13.09;100.00
32324;BME280;25666;44.350;9.222;2023-02-18T09:39:20;103165.75;;;13.17;100.00
32324;BME280;25666;44.350;9.222;2023-02-18T09:41:53;103164.00;;;13.21;100.00
32324;BME280;25666;44.350;9.222;2023-02-18T09:44:26;103154.66;;;13.25;100.00
32324;BME280;25666;44.350;9.222;2023-02-18T09:47:04;103157.06;;;13.32;100.00
32324;BME280;25666;44.350;9.222;2023-02-18T09:49:34;103154.97;;;13.37;100.00
32324;BME280;25666;44.350;9.222;2023-02-18T09:52:22;103161.81;;;13.45;100.00
32324;BME280;25666;44.350;9.222;2023-02-18T09:54:49;103164.13;;;13.43;100.00
32324;BME280;25666;44.350;9.222;2023-02-18T09:57:34;103153.75;;;13.44;100.00
32324;BME280;25666;44.350;9.222;2023-02-18T10:00:09;103159.34;;;13.44;100.00
32324;BME280;25666;44.350;9.222;2023-02-18T10:02:39;103163.69;;;13.50;100.00
32324;BME280;25666;44.350;9.222;2023-02-18T10:05:11;103156.13;;;13.50;100.00
32324;BME280;25666;44.350;9.222;2023-02-18T10:07:39;103154.06;;;13.56;100.00
32324;BME280;25666;44.350;9.222;2023-02-18T10:12:58;103153.44;;;13.59;100.00
32324;BME280;25666;44.350;9.222;2023-02-18T10:15:27;103155.28;;;13.63;100.00
32324;BME280;25666;44.350;9.222;2023-02-18T10:17:55;103152.41;;;13.68;100.00
32324;BME280;25666;44.350;9.222;2023-02-18T10:20:24;103152.28;;;13.73;100.00
32324;BME280;25666;44.350;9.222;2023-02-18T10:22:51;103150.44;;;13.69;100.00
32324;BME280;25666;44.350;9.222;2023-02-18T10:25:19;103143.56;;;13.75;100.00
32324;BME280;25666;44.350;9.222;2023-02-18T10:27:47;103146.84;;;13.90;100.00
32324;BME280;25666;44.350;9.222;2023-02-18T10:32:42;103141.13;;;13.95;100.00
32324;BME280;25666;44.350;9.222;2023-02-18T10:35:16;103143.28;;;13.99;100.00
32324;BME280;25666;44.350;9.222;2023-02-18T10:37:56;103132.31;;;14.02;100.00
32324;BME280;25666;44.350;9.222;2023-02-18T10:48:41;103124.13;;;14.28;100.00
32324;BME280;25666;44.350;9.222;2023-02-18T10:51:18;103123.16;;;14.32;100.00
32324;BME280;25666;44.350;9.222;2023-02-18T10:53:45;103123.16;;;14.32;100.00
32324;BME280;25666;44.350;9.222;2023-02-18T10:56:34;103116.72;;;14.32;100.00
32324;BME280;25666;44.350;9.222;2023-02-18T11:01:44;103117.50;;;14.24;100.00
32324;BME280;25666;44.350;9.222;2023-02-18T11:04:14;103119.50;;;14.32;100.00
32324;BME280;25666;44.350;9.222;2023-02-18T11:06:45;103112.38;;;14.39;100.00
32324;BME280;25666;44.350;9.222;2023-02-18T11:09:25;103105.72;;;14.35;100.00
32324;BME280;25666;44.350;9.222;2023-02-18T11:11:58;103103.47;;;14.37;100.00
32324;BME280;25666;44.350;9.222;2023-02-18T11:14:40;103098.00;;;14.41;100.00
32324;BME280;25666;44.350;9.222;2023-02-18T11:17:25;103097.31;;;14.35;100.00
32324;BME280;25666;44.350;9.222;2023-02-18T11:19:54;103094.84;;;14.34;100.00
32324;BME280;25666;44.350;9.222;2023-02-18T11:22:34;103095.22;;;14.19;100.00
32324;BME280;25666;44.350;9.222;2023-02-18T11:25:03;103097.69;;;14.20;100.00
32324;BME280;25666;44.350;9.222;2023-02-18T11:27:44;103096.47;;;14.13;100.00
32324;BME280;25666;44.350;9.222;2023-02-18T11:33:03;103090.75;;;14.18;100.00
32324;BME280;25666;44.350;9.222;2023-02-18T11:35:32;103085.69;;;14.28;100.00
32324;BME280;25666;44.350;9.222;2023-02-18T11:37:59;103084.31;;;14.17;100.00
32324;BME280;25666;44.350;9.222;2023-02-18T11:40:33;103085.41;;;14.30;100.00
32324;BME280;25666;44.350;9.222;2023-02-18T11:43:14;103080.06;;;14.42;100.00
32324;BME280;25666;44.350;9.222;2023-02-18T11:45:40;103073.81;;;14.45;100.00
32324;BME280;25666;44.350;9.222;2023-02-18T11:48:15;103071.09;;;14.31;100.00
32324;BME280;25666;44.350;9.222;2023-02-18T11:50:40;103062.56;;;14.36;100.00
32324;BME280;25666;44.350;9.222;2023-02-18T11:53:26;103064.91;;;14.43;100.00
32324;BME280;25666;44.350;9.222;2023-02-18T11:56:00;103060.50;;;14.51;100.00
32324;BME280;25666;44.350;9.222;2023-02-18T11:58:31;103054.59;;;14.52;100.00
32324;BME280;25666;44.350;9.222;2023-02-18T12:01:02;103040.50;;;14.66;100.00
32324;BME280;25666;44.350;9.222;2023-02-18T12:03:35;103048.75;;;14.71;100.00
32324;BME280;25666;44.350;9.222;2023-02-18T12:06:11;103042.00;;;14.72;100.00
32324;BME280;25666;44.350;9.222;2023-02-18T12:08:47;103044.34;;;14.78;100.00
32324;BME280;25666;44.350;9.222;2023-02-18T12:11:21;103033.66;;;14.89;100.00
32324;BME280;25666;44.350;9.222;2023-02-18T12:13:53;103025.91;;;14.94;100.00
32324;BME280;25666;44.350;9.222;2023-02-18T12:16:36;103016.00;;;14.88;100.00
32324;BME280;25666;44.350;9.222;2023-02-18T12:24:38;103011.41;;;15.01;100.00
32324;BME280;25666;44.350;9.222;2023-02-18T12:32:37;102998.00;;;14.81;100.00
32324;BME280;25666;44.350;9.222;2023-02-18T12:49:19;102995.78;;;15.09;100.00
32324;BME280;25666;44.350;9.222;2023-02-18T12:52:13;102991.47;;;14.94;100.00
32324;BME280;25666;44.350;9.222;2023-02-18T13:02:07;102978.41;;;14.89;100.00
32324;BME280;25666;44.350;9.222;2023-02-18T13:12:58;102971.84;;;15.02;100.00
32324;BME280;25666;44.350;9.222;2023-02-18T13:15:39;102966.50;;;14.84;100.00
32324;BME280;25666;44.350;9.222;2023-02-18T13:21:11;102965.69;;;14.83;100.00
32324;BME280;25666;44.350;9.222;2023-02-18T13:23:44;102960.88;;;14.75;100.00
32324;BME280;25666;44.350;9.222;2023-02-18T13:26:13;102954.75;;;14.73;100.00
32324;BME280;25666;44.350;9.222;2023-02-18T13:37:36;102941.56;;;14.65;100.00
32324;BME280;25666;44.350;9.222;2023-02-18T13:40:17;102947.09;;;14.57;100.00
32324;BME280;25666;44.350;9.222;2023-02-18T13:42:43;102942.50;;;14.52;100.00
32324;BME280;25666;44.350;9.222;2023-02-18T13:45:25;102931.09;;;14.48;100.00
32324;BME280;25666;44.350;9.222;2023-02-18T13:47:51;102940.31;;;14.40;100.00
32324;BME280;25666;44.350;9.222;2023-02-18T13:55:59;102929.34;;;14.30;100.00
32324;BME280;25666;44.350;9.222;2023-02-18T14:01:13;102919.84;;;14.09;100.00
32324;BME280;25666;44.350;9.222;2023-02-18T14:06:20;102910.84;;;13.90;100.00
32324;BME280;25666;44.350;9.222;2023-02-18T14:08:48;102909.69;;;13.91;100.00
32324;BME280;25666;44.350;9.222;2023-02-18T14:13:40;102910.44;;;13.74;100.00
32324;BME280;25666;44.350;9.222;2023-02-18T14:16:07;102901.69;;;13.76;100.00
32324;BME280;25666;44.350;9.222;2023-02-18T14:18:54;102907.47;;;13.79;100.00
32324;BME280;25666;44.350;9.222;2023-02-18T14:21:33;102908.75;;;13.73;100.00
32324;BME280;25666;44.350;9.222;2023-02-18T14:24:01;102910.91;;;13.76;100.00
32324;BME280;25666;44.350;9.222;2023-02-18T14:26:45;102904.69;;;13.79;100.00
32324;BME280;25666;44.350;9.222;2023-02-18T14:29:16;102903.53;;;13.80;100.00
32324;BME280;25666;44.350;9.222;2023-02-18T14:31:56;102910.09;;;13.76;100.00
32324;BME280;25666;44.350;9.222;2023-02-18T14:50:18;102909.41;;;13.70;100.00
32324;BME280;25666;44.350;9.222;2023-02-18T14:52:49;102896.25;;;13.71;100.00
32324;BME280;25666;44.350;9.222;2023-02-18T14:55:34;102900.38;;;13.73;100.00
32324;BME280;25666;44.350;9.222;2023-02-18T14:58:04;102893.28;;;13.76;100.00
32324;BME280;25666;44.350;9.222;2023-02-18T15:00:34;102891.47;;;13.71;100.00
32324;BME280;25666;44.350;9.222;2023-02-18T15:03:03;102898.06;;;13.75;100.00
32324;BME280;25666;44.350;9.222;2023-02-18T15:05:30;102892.22;;;13.63;100.00
32324;BME280;25666;44.350;9.222;2023-02-18T15:08:05;102895.16;;;13.58;100.00
32324;BME280;25666;44.350;9.222;2023-02-18T15:11:00;102888.34;;;13.51;100.00
32324;BME280;25666;44.350;9.222;2023-02-18T15:13:30;102893.00;;;13.55;100.00
32324;BME280;25666;44.350;9.222;2023-02-18T15:16:02;102893.66;;;13.52;100.00